Time;durP1;ratioP1;P1;durP2;ratioP2;P2;SDS_P1;SDS_P2;PMS_P1;PMS_P2;Temp;Humidity;BMP_temperature;BMP_pressure;BME280_temperature;BME280_humidity;BME280_pressure;Samples;Min_cycle;Max_cycle;Signal;HPM_P1;HPM_P2
2022/02/10 00:21:48;;;;;;;4.40;3.67;;;;;;;;;;5024570;28;20384;-80
2022/02/10 00:35:27;;;;;;;7.13;2.97;;;;;;;;;;5019801;28;20702;-80
2022/02/10 00:37:58;;;;;;;5.57;2.63;;;;;;;;;;5019582;28;20777;-80
2022/02/10 00:40:32;;;;;;;7.63;3.27;;;;;;;;;;5017704;28;20525;-81
2022/02/10 00:42:59;;;;;;;4.17;2.70;;;;;;;;;;5019491;28;20400;-81
2022/02/10 00:45:28;;;;;;;4.67;2.97;;;;;;;;;;5018842;28;20450;-80
2022/02/10 00:48:01;;;;;;;3.83;2.63;;;;;;;;;;5017770;28;20418;-81
2022/02/10 00:50:28;;;;;;;5.77;3.40;;;;;;;;;;5017885;28;20435;-79
2022/02/10 00:53:01;;;;;;;3.97;2.97;;;;;;;;;;5019228;28;20491;-81
2022/02/10 00:55:29;;;;;;;6.27;2.80;;;;;;;;;;5018429;28;20464;-81
2022/02/10 00:57:56;;;;;;;3.93;2.40;;;;;;;;;;5018382;28;20487;-80
2022/02/10 01:02:11;;;;;;;7.33;3.67;;;;;;;;;;5016407;28;20521;-80
2022/02/10 01:30:33;;;;;;;3.60;2.57;;;;;;;;;;5018379;28;20438;-80
2022/02/10 01:33:02;;;;;;;4.10;2.77;;;;;;;;;;5018958;28;20406;-80
2022/02/10 01:35:28;;;;;;;3.60;2.70;;;;;;;;;;5016770;28;20496;-80
2022/02/10 01:37:55;;;;;;;7.03;3.57;;;;;;;;;;5018454;28;20411;-80
2022/02/10 01:40:59;;;;;;;4.10;2.70;;;;;;;;;;5018568;28;20993;-80
2022/02/10 02:05:20;;;;;;;4.87;3.20;;;;;;;;;;5018039;28;20446;-80
2022/02/10 02:07:46;;;;;;;4.60;3.00;;;;;;;;;;5018195;28;20454;-80
2022/02/10 02:10:12;;;;;;;4.73;2.90;;;;;;;;;;5016094;28;20458;-80
2022/02/10 02:12:38;;;;;;;4.77;2.77;;;;;;;;;;5017047;28;20465;-80
2022/02/10 02:15:04;;;;;;;4.37;3.33;;;;;;;;;;5016760;28;20422;-80
2022/02/10 02:17:30;;;;;;;4.30;3.13;;;;;;;;;;5016716;28;20546;-80
2022/02/10 02:19:56;;;;;;;4.47;2.90;;;;;;;;;;5023245;28;20513;-80
2022/02/10 02:22:22;;;;;;;3.60;3.07;;;;;;;;;;5019402;28;20400;-80
2022/02/10 02:24:49;;;;;;;3.70;2.60;;;;;;;;;;5019868;28;20426;-80
2022/02/10 02:27:18;;;;;;;6.13;3.07;;;;;;;;;;5020436;28;20396;-80
2022/02/10 02:29:51;;;;;;;5.83;2.90;;;;;;;;;;5019571;28;20446;-80
2022/02/10 02:32:24;;;;;;;4.47;2.57;;;;;;;;;;5020254;28;20911;-80
2022/02/10 03:10:08;;;;;;;3.07;2.30;;;;;;;;;;5022584;28;20423;-80
2022/02/10 03:12:37;;;;;;;3.80;2.00;;;;;;;;;;5033666;28;20475;-80
2022/02/10 03:15:09;;;;;;;2.30;1.90;;;;;;;;;;5034263;28;20418;-80
2022/02/10 03:20:17;;;;;;;3.50;2.63;;;;;;;;;;5031371;28;20466;-80
2022/02/10 04:01:55;;;;;;;2.90;1.80;;;;;;;;;;5052754;28;20413;-80
2022/02/10 04:04:44;;;;;;;4.20;2.13;;;;;;;;;;5048843;28;20437;-80
2022/02/10 05:06:57;;;;;;;2.43;1.70;;;;;;;;;;5030694;28;20414;-81
2022/02/10 05:24:42;;;;;;;4.60;2.13;;;;;;;;;;5033066;28;20379;-80
2022/02/10 05:32:41;;;;;;;3.40;2.17;;;;;;;;;;5028439;28;20403;-81
2022/02/10 05:37:36;;;;;;;5.87;2.57;;;;;;;;;;5022996;28;20887;-80
2022/02/10 05:40:07;;;;;;;4.13;2.00;;;;;;;;;;5034063;23;20624;-79
2022/02/10 05:53:01;;;;;;;6.90;2.50;;;;;;;;;;4998124;28;20388;-78
2022/02/10 06:52:35;;;;;;;5.40;2.37;;;;;;;;;;4999561;28;20417;-77
2022/02/10 06:55:30;;;;;;;5.20;2.50;;;;;;;;;;5003642;28;20440;-78
2022/02/10 07:08:50;;;;;;;3.60;2.13;;;;;;;;;;5002472;28;20377;-79
2022/02/10 07:57:54;;;;;;;5.87;2.77;;;;;;;;;;5001018;28;20410;-79
2022/02/10 08:57:06;;;;;;;7.90;3.50;;;;;;;;;;5030211;28;20486;-79
2022/02/10 09:07:50;;;;;;;4.40;2.43;;;;;;;;;;5018210;28;20506;-79
2022/02/10 09:56:19;;;;;;;5.03;2.50;;;;;;;;;;5006994;28;20468;-79
2022/02/10 09:59:08;;;;;;;4.27;2.50;;;;;;;;;;5018379;28;20409;-79
2022/02/10 10:04:07;;;;;;;7.60;2.73;;;;;;;;;;5015985;28;20924;-79
2022/02/10 10:15:07;;;;;;;10.77;2.30;;;;;;;;;;5016965;28;20754;-79
2022/02/10 10:18:02;;;;;;;6.97;2.57;;;;;;;;;;5012784;28;20435;-79
2022/02/10 10:20:57;;;;;;;6.87;3.00;;;;;;;;;;5010332;28;20470;-79
2022/02/10 10:26:15;;;;;;;7.73;3.13;;;;;;;;;;5018366;28;20399;-80
2022/02/10 10:46:33;;;;;;;5.17;3.17;;;;;;;;;;5017264;28;20827;-79
2022/02/10 10:55:53;;;;;;;5.17;2.50;;;;;;;;;;5013936;28;20443;-80
2022/02/10 10:58:33;;;;;;;4.23;2.50;;;;;;;;;;5019079;28;20418;-80
2022/02/10 11:04:50;;;;;;;5.47;2.90;;;;;;;;;;5016079;28;20442;-79
2022/02/10 11:38:06;;;;;;;5.43;3.00;;;;;;;;;;5021824;28;20461;-79
2022/02/10 11:40:40;;;;;;;6.57;3.17;;;;;;;;;;5031106;22;20534;-76
2022/02/10 11:43:31;;;;;;;3.33;2.10;;;;;;;;;;5007672;28;20521;-76
2022/02/10 12:00:45;;;;;;;6.33;2.33;;;;;;;;;;4992702;28;20506;-76
2022/02/10 14:09:06;;;;;;;4.70;2.70;;;;;;;;;;4996035;28;20442;-78
2022/02/10 14:13:01;;;;;;;6.50;2.80;;;;;;;;;;4993376;28;20750;-77
2022/02/10 14:25:48;;;;;;;5.67;3.43;;;;;;;;;;4994912;28;20440;-76
2022/02/10 14:28:14;;;;;;;7.17;3.17;;;;;;;;;;4983964;28;20423;-76
2022/02/10 14:30:41;;;;;;;7.40;4.30;;;;;;;;;;4993795;28;20507;-76
2022/02/10 14:33:07;;;;;;;5.13;2.93;;;;;;;;;;4997446;28;20440;-78
2022/02/10 14:35:40;;;;;;;5.93;3.47;;;;;;;;;;4993891;28;20423;-77
2022/02/10 16:13:26;;;;;;;10.33;3.97;;;;;;;;;;4994576;28;20474;-76
2022/02/10 16:17:41;;;;;;;4.43;2.80;;;;;;;;;;4994754;28;20507;-76
2022/02/10 16:20:08;;;;;;;10.50;3.90;;;;;;;;;;4993346;28;21068;-76
2022/02/10 16:22:49;;;;;;;7.07;3.30;;;;;;;;;;4994776;28;20520;-76
2022/02/10 16:25:17;;;;;;;7.83;4.07;;;;;;;;;;4995639;28;20801;-76
2022/02/10 16:27:50;;;;;;;6.80;3.80;;;;;;;;;;4994957;28;20408;-76
2022/02/10 16:30:16;;;;;;;8.07;4.57;;;;;;;;;;4993168;28;20448;-76
2022/02/10 16:32:42;;;;;;;8.73;4.80;;;;;;;;;;4995931;28;20424;-77
2022/02/10 16:35:11;;;;;;;12.17;4.57;;;;;;;;;;4994484;28;20468;-76
2022/02/10 16:37:37;;;;;;;7.10;4.40;;;;;;;;;;4991647;28;20874;-76
2022/02/10 16:40:04;;;;;;;5.40;4.10;;;;;;;;;;4994815;28;20837;-76
2022/02/10 16:42:30;;;;;;;7.97;4.00;;;;;;;;;;5001247;28;20507;-76
2022/02/10 16:44:56;;;;;;;7.80;4.07;;;;;;;;;;5001640;28;20471;-76
2022/02/10 16:47:22;;;;;;;7.40;4.10;;;;;;;;;;4994586;28;20523;-76
2022/02/10 16:49:52;;;;;;;5.53;3.37;;;;;;;;;;4995297;28;20413;-76
2022/02/10 16:52:22;;;;;;;6.40;3.77;;;;;;;;;;4994917;28;20860;-76
2022/02/10 16:54:51;;;;;;;8.77;4.37;;;;;;;;;;4992819;28;20422;-77
2022/02/10 16:57:34;;;;;;;8.13;4.13;;;;;;;;;;5000960;28;20428;-77
2022/02/10 17:00:33;;;;;;;12.23;4.30;;;;;;;;;;4993294;28;20835;-76
2022/02/10 17:03:18;;;;;;;6.20;3.77;;;;;;;;;;4986357;28;20431;-76
2022/02/10 17:14:25;;;;;;;6.67;4.10;;;;;;;;;;4994518;28;21108;-77
2022/02/10 17:19:30;;;;;;;11.20;3.97;;;;;;;;;;4994636;28;20455;-77
2022/02/10 17:35:16;;;;;;;9.10;4.73;;;;;;;;;;4994246;28;20773;-77
2022/02/10 17:46:37;;;;;;;6.50;4.30;;;;;;;;;;5006687;28;20428;-80
2022/02/10 17:54:31;;;;;;;8.20;4.80;;;;;;;;;;4988680;28;20502;-79
2022/02/10 17:56:57;;;;;;;6.70;4.80;;;;;;;;;;4993816;28;20475;-78
2022/02/10 17:59:23;;;;;;;8.57;4.83;;;;;;;;;;4998921;28;20916;-79
2022/02/10 18:01:52;;;;;;;11.97;5.33;;;;;;;;;;5010959;28;20439;-79
2022/02/10 18:04:20;;;;;;;8.60;5.20;;;;;;;;;;5018843;28;20418;-79
2022/02/10 18:06:52;;;;;;;12.40;5.53;;;;;;;;;;5014563;28;20747;-79
2022/02/10 18:20:07;;;;;;;8.83;5.63;;;;;;;;;;5017392;28;20471;-79
2022/02/10 18:30:19;;;;;;;10.00;5.80;;;;;;;;;;5013028;28;20426;-79
2022/02/10 19:10:02;;;;;;;13.03;7.30;;;;;;;;;;5022849;28;20438;-79
2022/02/10 19:12:32;;;;;;;11.23;7.80;;;;;;;;;;5024362;28;20430;-79
2022/02/10 19:15:12;;;;;;;11.87;6.83;;;;;;;;;;5014429;28;20450;-81
2022/02/10 19:17:39;;;;;;;8.60;6.83;;;;;;;;;;5020352;28;20433;-80
2022/02/10 19:20:05;;;;;;;10.17;8.53;;;;;;;;;;5018170;28;20471;-80
2022/02/10 19:22:31;;;;;;;10.43;7.30;;;;;;;;;;5008140;28;20466;-81
2022/02/10 19:24:58;;;;;;;18.50;7.67;;;;;;;;;;5022249;28;20423;-81
2022/02/10 19:27:24;;;;;;;12.33;8.03;;;;;;;;;;5025510;28;20415;-80
2022/02/10 19:29:56;;;;;;;12.53;8.37;;;;;;;;;;5023190;28;20512;-81
2022/02/10 19:32:23;;;;;;;19.33;8.80;;;;;;;;;;5013873;28;20487;-81
2022/02/10 19:34:52;;;;;;;9.63;7.60;;;;;;;;;;5022890;28;20411;-81
2022/02/10 19:37:18;;;;;;;10.90;7.67;;;;;;;;;;5021868;28;20418;-81
2022/02/10 19:39:50;;;;;;;13.17;8.50;;;;;;;;;;5021365;28;20490;-80
2022/02/10 19:42:16;;;;;;;10.97;7.67;;;;;;;;;;5021571;28;20489;-80
2022/02/10 19:44:42;;;;;;;12.20;8.60;;;;;;;;;;5021763;28;20400;-81
2022/02/10 19:47:08;;;;;;;11.50;8.07;;;;;;;;;;5021389;28;20406;-81
2022/02/10 19:49:37;;;;;;;15.70;9.63;;;;;;;;;;5021500;28;20411;-80
2022/02/10 19:52:04;;;;;;;15.60;9.77;;;;;;;;;;5021312;28;20907;-81
2022/02/10 19:54:36;;;;;;;15.00;8.60;;;;;;;;;;5022507;28;20412;-80
2022/02/10 19:57:02;;;;;;;21.23;9.90;;;;;;;;;;5023377;28;20423;-79
2022/02/10 19:59:30;;;;;;;15.43;8.90;;;;;;;;;;5025376;28;20423;-79
2022/02/10 20:01:57;;;;;;;14.40;9.70;;;;;;;;;;5021940;28;20415;-80
2022/02/10 20:04:24;;;;;;;15.43;9.23;;;;;;;;;;5021826;28;20446;-81
2022/02/10 20:06:51;;;;;;;11.83;8.77;;;;;;;;;;5020738;28;20771;-80
2022/02/10 20:09:17;;;;;;;14.60;10.33;;;;;;;;;;5020051;28;20483;-80
2022/02/10 20:11:43;;;;;;;15.53;10.53;;;;;;;;;;5020771;28;20426;-80
2022/02/10 20:14:09;;;;;;;13.03;7.87;;;;;;;;;;5021364;28;20408;-80
2022/02/10 20:16:35;;;;;;;15.80;9.73;;;;;;;;;;5020503;28;20403;-81
2022/02/10 20:19:02;;;;;;;13.33;8.30;;;;;;;;;;5020577;28;20404;-80
2022/02/10 20:21:30;;;;;;;15.00;8.80;;;;;;;;;;5020470;28;20542;-80
2022/02/10 20:23:56;;;;;;;17.80;9.13;;;;;;;;;;5020164;28;20414;-80
2022/02/10 20:26:22;;;;;;;13.33;8.50;;;;;;;;;;5018883;28;20447;-80
2022/02/10 20:28:48;;;;;;;11.50;8.90;;;;;;;;;;5020357;28;20412;-80
2022/02/10 20:31:15;;;;;;;12.00;8.90;;;;;;;;;;5019864;28;20950;-80
2022/02/10 20:33:41;;;;;;;16.87;9.37;;;;;;;;;;5020865;28;20906;-80
2022/02/10 20:36:08;;;;;;;12.10;8.10;;;;;;;;;;5026702;28;20411;-80
2022/02/10 20:38:37;;;;;;;10.93;8.67;;;;;;;;;;5025238;28;20508;-81
2022/02/10 20:41:07;;;;;;;13.77;8.77;;;;;;;;;;5020202;28;20507;-80
2022/02/10 20:43:33;;;;;;;15.63;8.97;;;;;;;;;;5020345;28;20818;-81
2022/02/10 20:46:03;;;;;;;11.23;8.20;;;;;;;;;;5020268;28;20403;-81
2022/02/10 20:48:32;;;;;;;13.70;8.83;;;;;;;;;;5020745;28;20404;-80
2022/02/10 20:50:58;;;;;;;13.50;9.83;;;;;;;;;;5020524;28;20439;-80
2022/02/10 20:53:25;;;;;;;11.70;8.03;;;;;;;;;;5018028;28;20415;-80
2022/02/10 20:55:53;;;;;;;10.90;8.00;;;;;;;;;;5018429;28;20501;-80
2022/02/10 20:58:21;;;;;;;9.43;7.53;;;;;;;;;;5019735;28;20418;-80
2022/02/10 21:00:49;;;;;;;12.07;7.83;;;;;;;;;;5018706;28;20467;-79
2022/02/10 21:03:15;;;;;;;16.43;9.00;;;;;;;;;;5019288;28;20785;-80
2022/02/10 21:05:43;;;;;;;14.30;10.30;;;;;;;;;;5018791;28;20921;-80
2022/02/10 21:10:42;;;;;;;11.67;8.40;;;;;;;;;;5019330;28;20380;-80
2022/02/10 21:13:11;;;;;;;15.40;9.47;;;;;;;;;;5019505;28;20426;-81
2022/02/10 21:15:43;;;;;;;19.70;9.90;;;;;;;;;;5019367;28;20403;-80
2022/02/10 21:18:11;;;;;;;17.53;9.67;;;;;;;;;;5019271;28;20388;-79
2022/02/10 21:20:37;;;;;;;12.17;9.90;;;;;;;;;;5019413;28;20958;-81
2022/02/10 21:25:43;;;;;;;12.40;9.37;;;;;;;;;;5019611;28;20384;-81
2022/02/10 21:28:24;;;;;;;14.57;9.60;;;;;;;;;;5018390;28;20904;-80
2022/02/10 21:30:53;;;;;;;12.27;9.43;;;;;;;;;;5019800;28;20411;-81
2022/02/10 21:38:29;;;;;;;16.20;10.50;;;;;;;;;;5019425;28;20391;-81
2022/02/10 21:55:35;;;;;;;15.63;10.70;;;;;;;;;;5018947;28;20391;-81
2022/02/10 22:18:53;;;;;;;10.90;9.73;;;;;;;;;;5018458;28;20419;-81
2022/02/10 22:21:31;;;;;;;16.13;8.80;;;;;;;;;;5024099;28;20465;-81
2022/02/10 22:23:59;;;;;;;15.83;8.87;;;;;;;;;;5018670;28;20767;-81
2022/02/10 22:26:28;;;;;;;10.47;8.17;;;;;;;;;;5018018;28;20466;-81
2022/02/10 22:29:09;;;;;;;13.60;9.00;;;;;;;;;;5020293;28;20910;-81
2022/02/10 22:31:51;;;;;;;15.20;8.70;;;;;;;;;;5020339;28;20435;-81
2022/02/10 22:34:35;;;;;;;17.83;9.80;;;;;;;;;;5022281;28;20446;-81
2022/02/10 22:37:03;;;;;;;11.43;9.23;;;;;;;;;;5019311;28;20395;-81
2022/02/10 22:39:34;;;;;;;15.03;9.60;;;;;;;;;;5018510;28;20416;-81
2022/02/10 22:42:00;;;;;;;13.67;8.93;;;;;;;;;;5019005;28;20447;-81
2022/02/10 22:44:26;;;;;;;12.50;9.10;;;;;;;;;;5019713;28;20950;-81
2022/02/10 22:46:52;;;;;;;11.40;8.43;;;;;;;;;;5018896;28;20415;-81
2022/02/10 22:49:18;;;;;;;17.97;9.60;;;;;;;;;;5019172;28;20415;-81
2022/02/10 22:51:44;;;;;;;15.03;9.90;;;;;;;;;;5018975;28;21001;-81
2022/02/10 22:54:13;;;;;;;14.10;8.40;;;;;;;;;;5017848;28;20892;-80
2022/02/10 22:56:39;;;;;;;12.53;8.63;;;;;;;;;;5018805;28;20399;-81
2022/02/10 22:59:07;;;;;;;13.13;8.50;;;;;;;;;;5020892;28;20406;-79
2022/02/10 23:01:34;;;;;;;9.57;7.83;;;;;;;;;;5020524;28;20458;-79
2022/02/10 23:04:00;;;;;;;9.57;7.17;;;;;;;;;;5018033;28;20416;-81
2022/02/10 23:06:26;;;;;;;12.43;7.87;;;;;;;;;;5017012;28;20415;-81
2022/02/10 23:08:53;;;;;;;10.57;7.27;;;;;;;;;;5018424;28;20443;-80
2022/02/10 23:11:26;;;;;;;10.30;7.47;;;;;;;;;;5018179;28;20435;-80
2022/02/10 23:13:53;;;;;;;10.73;7.63;;;;;;;;;;5017480;28;20757;-80
2022/02/10 23:16:19;;;;;;;9.73;7.20;;;;;;;;;;5016460;28;20434;-80
2022/02/10 23:18:45;;;;;;;12.80;8.30;;;;;;;;;;5017524;28;20410;-80
2022/02/10 23:21:14;;;;;;;9.93;6.67;;;;;;;;;;5016424;28;20528;-80
2022/02/10 23:23:41;;;;;;;9.90;6.60;;;;;;;;;;5017859;28;20411;-81
2022/02/10 23:26:08;;;;;;;13.20;7.30;;;;;;;;;;5019761;28;20410;-81
2022/02/10 23:28:38;;;;;;;9.30;6.50;;;;;;;;;;5021140;28;20399;-81
2022/02/10 23:31:05;;;;;;;9.53;6.80;;;;;;;;;;5025158;28;20477;-80
2022/02/10 23:33:35;;;;;;;11.70;7.53;;;;;;;;;;5028242;28;20410;-79
2022/02/10 23:38:34;;;;;;;7.83;6.57;;;;;;;;;;5021645;28;20494;-80
2022/02/10 23:43:53;;;;;;;9.70;6.00;;;;;;;;;;5034042;22;21006;-81
2022/02/10 23:46:20;;;;;;;10.03;5.90;;;;;;;;;;5035982;28;20422;-80
2022/02/10 23:48:46;;;;;;;9.37;7.03;;;;;;;;;;5036391;28;20475;-81
2022/02/10 23:51:13;;;;;;;11.53;6.20;;;;;;;;;;5037042;28;20465;-82
2022/02/10 23:53:39;;;;;;;7.53;6.00;;;;;;;;;;5020807;28;20577;-82
2022/02/10 23:56:10;;;;;;;8.40;6.50;;;;;;;;;;5019607;28;20411;-82
2022/02/10 23:59:04;;;;;;;7.90;5.70;;;;;;;;;;5020602;28;20380;-81
